createdAt,value
2022-10-09T00:01:40.568Z,68.98
2022-10-09T00:04:07.317Z,68.90
2022-10-09T00:06:35.190Z,68.62
2022-10-09T00:09:03.478Z,68.97
2022-10-09T00:11:32.400Z,68.86
2022-10-09T00:14:00.134Z,68.96
2022-10-09T00:16:27.036Z,69.15
2022-10-09T00:18:53.808Z,69.02
2022-10-09T00:21:24.810Z,68.99
2022-10-09T00:23:55.293Z,68.96
2022-10-09T00:26:22.543Z,68.88
2022-10-09T00:28:49.807Z,68.70
2022-10-09T00:31:16.726Z,68.79
2022-10-09T00:33:43.504Z,68.47
2022-10-09T00:36:18.899Z,68.38
2022-10-09T00:38:45.584Z,68.64
2022-10-09T00:41:21.273Z,68.52
2022-10-09T00:43:53.648Z,68.59
2022-10-09T00:46:25.502Z,68.77
2022-10-09T00:48:58.501Z,68.74
2022-10-09T00:51:25.213Z,68.56
2022-10-09T00:53:52.135Z,68.73
2022-10-09T00:56:18.973Z,68.68
2022-10-09T00:58:49.380Z,68.79
2022-10-09T01:01:16.142Z,68.70
2022-10-09T01:03:42.953Z,68.55
2022-10-09T01:06:20.474Z,68.47
2022-10-09T01:09:14.159Z,68.83
2022-10-09T01:11:58.011Z,68.44
2022-10-09T01:14:28.322Z,68.50
2022-10-09T01:16:54.949Z,68.59
2022-10-09T01:19:41.875Z,68.42
2022-10-09T01:22:23.109Z,68.60
2022-10-09T01:25:06.142Z,68.59
2022-10-09T01:27:34.163Z,68.65
2022-10-09T01:30:04.255Z,68.78
2022-10-09T01:32:33.071Z,68.73
2022-10-09T01:35:00.474Z,68.88
2022-10-09T01:37:27.966Z,68.80
2022-10-09T01:39:54.679Z,68.77
2022-10-09T01:42:22.390Z,68.97
2022-10-09T01:44:49.157Z,68.68
2022-10-09T01:47:17.505Z,68.86
2022-10-09T01:49:53.038Z,68.54
2022-10-09T01:52:58.449Z,68.62
2022-10-09T01:55:36.582Z,68.35
2022-10-09T01:58:29.280Z,68.43
2022-10-09T02:01:14.273Z,68.49
2022-10-09T02:03:43.019Z,68.41
2022-10-09T02:06:11.485Z,68.74
2022-10-09T02:08:39.128Z,68.46
2022-10-09T02:11:06.542Z,68.47
2022-10-09T02:13:34.275Z,68.91
2022-10-09T02:16:06.403Z,68.58
2022-10-09T02:18:39.809Z,68.68
2022-10-09T02:21:11.409Z,68.73
2022-10-09T02:23:40.222Z,68.46
2022-10-09T02:26:07.148Z,68.45
2022-10-09T02:28:34.081Z,68.85
2022-10-09T02:31:05.374Z,68.89
2022-10-09T02:33:34.107Z,69.12
2022-10-09T02:36:08.163Z,68.70
2022-10-09T02:38:38.028Z,69.02
2022-10-09T02:41:05.078Z,68.86
2022-10-09T02:43:31.878Z,68.94
2022-10-09T02:46:00.940Z,68.74
2022-10-09T02:48:27.776Z,69.11
2022-10-09T02:50:54.565Z,68.71
2022-10-09T02:53:21.304Z,68.87
2022-10-09T02:55:48.142Z,68.51
2022-10-09T02:58:14.916Z,68.68
2022-10-09T03:00:41.884Z,69.20
2022-10-09T03:03:08.935Z,69.04
2022-10-09T03:05:35.850Z,68.92
2022-10-09T03:08:02.646Z,68.89
2022-10-09T03:10:29.398Z,68.84
2022-10-09T03:12:56.207Z,69.10
2022-10-09T03:15:23.037Z,69.20
2022-10-09T03:17:49.808Z,68.69
2022-10-09T03:20:16.625Z,68.99
2022-10-09T03:22:43.390Z,68.84
2022-10-09T03:25:10.161Z,68.96
2022-10-09T03:27:37.034Z,68.86
2022-10-09T03:30:04.485Z,69.09
2022-10-09T03:32:31.569Z,68.88
2022-10-09T03:34:58.431Z,69.08
2022-10-09T03:37:25.271Z,68.72
2022-10-09T03:39:52.246Z,68.95
2022-10-09T03:42:22.224Z,68.68
2022-10-09T03:44:50.056Z,68.94
2022-10-09T03:47:17.161Z,68.96
2022-10-09T03:49:44.019Z,68.93
2022-10-09T03:52:10.834Z,68.78
2022-10-09T03:54:37.625Z,68.73
2022-10-09T03:57:04.383Z,69.26
2022-10-09T03:59:31.180Z,69.18
2022-10-09T04:01:58.026Z,68.93
2022-10-09T04:04:24.875Z,68.79
2022-10-09T04:06:54.447Z,69.01
2022-10-09T04:09:21.251Z,68.67
2022-10-09T04:11:48.071Z,69.07
2022-10-09T04:14:14.962Z,69.18
2022-10-09T04:16:41.891Z,69.02
2022-10-09T04:19:09.019Z,69.17
2022-10-09T04:21:38.551Z,69.16
2022-10-09T04:24:08.409Z,68.85
2022-10-09T04:26:40.389Z,69.10
2022-10-09T04:29:09.495Z,69.27
2022-10-09T04:31:36.353Z,69.08
2022-10-09T04:34:03.347Z,68.70
2022-10-09T04:36:30.216Z,69.12
2022-10-09T04:39:09.965Z,68.70
2022-10-09T04:41:38.439Z,68.66
2022-10-09T04:44:08.392Z,68.79
2022-10-09T04:46:35.202Z,68.68
2022-10-09T04:49:02.044Z,68.54
2022-10-09T04:51:28.933Z,68.44
2022-10-09T04:54:00.952Z,68.65
2022-10-09T04:56:28.040Z,68.68
2022-10-09T04:58:54.818Z,68.88
2022-10-09T05:01:27.034Z,68.82
2022-10-09T05:03:55.002Z,68.99
2022-10-09T05:06:23.310Z,69.12
2022-10-09T05:08:50.979Z,69.00
2022-10-09T05:11:24.522Z,68.59
2022-10-09T05:13:53.874Z,68.79
2022-10-09T05:16:23.890Z,68.57
2022-10-09T05:18:54.080Z,68.48
2022-10-09T05:21:21.570Z,68.63
2022-10-09T05:23:48.686Z,69.04
2022-10-09T05:26:18.974Z,68.51
2022-10-09T05:28:45.895Z,68.38
2022-10-09T05:31:33.233Z,68.76
2022-10-09T05:34:00.488Z,68.63
2022-10-09T05:36:27.361Z,68.36
2022-10-09T05:38:54.201Z,68.64
2022-10-09T05:41:21.276Z,68.79
2022-10-09T05:43:49.652Z,68.88
2022-10-09T05:46:20.935Z,68.65
2022-10-09T05:48:53.028Z,68.68
2022-10-09T05:51:39.426Z,68.72
2022-10-09T05:54:06.348Z,68.83
2022-10-09T05:56:35.505Z,68.80
2022-10-09T05:59:07.384Z,68.85
2022-10-09T06:01:40.166Z,68.87
2022-10-09T06:04:10.962Z,68.75
2022-10-09T06:06:39.215Z,69.02
2022-10-09T06:09:07.513Z,69.22
2022-10-09T06:11:36.703Z,69.67
2022-10-09T06:14:05.236Z,69.47
2022-10-09T06:16:34.562Z,69.71
2022-10-09T06:19:01.643Z,69.96
2022-10-09T06:21:28.910Z,70.15
2022-10-09T06:23:58.373Z,70.11
2022-10-09T06:26:26.029Z,70.41
2022-10-09T06:28:53.002Z,70.28
2022-10-09T06:31:22.447Z,70.35
2022-10-09T06:33:50.856Z,70.49
2022-10-09T06:36:23.012Z,70.43
2022-10-09T06:38:50.034Z,70.79
2022-10-09T06:41:19.258Z,71.19
2022-10-09T06:43:50.827Z,71.02
2022-10-09T06:46:18.209Z,71.01
2022-10-09T06:48:45.027Z,70.97
2022-10-09T06:51:14.269Z,71.23
2022-10-09T06:53:43.117Z,71.27
2022-10-09T06:56:10.473Z,71.31
2022-10-09T06:58:38.575Z,71.65
2022-10-09T07:01:32.515Z,71.69
2022-10-09T07:04:06.705Z,71.58
2022-10-09T07:06:37.280Z,71.84
2022-10-09T07:09:06.276Z,72.04
2022-10-09T07:11:39.993Z,72.23
2022-10-09T07:14:09.913Z,73.05
2022-10-09T07:16:38.905Z,73.38
2022-10-09T07:19:09.910Z,73.73
2022-10-09T07:21:43.792Z,73.59
2022-10-09T07:24:16.043Z,72.91
2022-10-09T07:26:51.150Z,72.05
2022-10-09T07:29:22.759Z,71.34
2022-10-09T07:31:52.314Z,70.97
2022-10-09T07:34:22.027Z,70.55
2022-10-09T07:36:54.242Z,70.98
2022-10-09T07:39:22.827Z,70.80
2022-10-09T07:42:15.955Z,70.87
2022-10-09T07:44:51.251Z,71.19
2022-10-09T07:47:18.474Z,71.25
2022-10-09T07:49:45.706Z,71.54
2022-10-09T07:52:12.900Z,71.93
2022-10-09T07:54:45.799Z,71.76
2022-10-09T07:57:36.816Z,72.09
2022-10-09T08:00:10.719Z,72.04
2022-10-09T08:02:41.259Z,71.77
2022-10-09T08:05:11.441Z,71.80
2022-10-09T08:07:38.533Z,71.73
2022-10-09T08:10:05.757Z,71.77
2022-10-09T08:12:40.534Z,71.65
2022-10-09T08:15:16.059Z,71.67
2022-10-09T08:17:42.838Z,71.78
2022-10-09T08:20:09.894Z,71.69
2022-10-09T08:25:59.223Z,71.92
2022-10-09T08:28:43.193Z,71.86
2022-10-09T08:31:31.977Z,71.79
2022-10-09T08:34:20.646Z,71.98
2022-10-09T08:37:11.804Z,72.29
2022-10-09T08:43:29.478Z,72.33
2022-10-09T08:46:31.052Z,72.04
2022-10-09T08:49:41.804Z,71.90
2022-10-09T08:52:50.151Z,71.68
2022-10-09T08:56:14.476Z,71.73
2022-10-09T08:58:57.061Z,71.62
2022-10-09T09:04:54.870Z,71.30
2022-10-09T09:17:58.665Z,71.05
2022-10-09T09:21:05.304Z,71.09
2022-10-09T09:23:54.581Z,70.92
2022-10-09T09:26:24.834Z,70.70
2022-10-09T09:29:09.444Z,70.71
2022-10-09T09:31:47.237Z,70.59
2022-10-09T09:34:22.349Z,70.59
2022-10-09T09:36:55.230Z,70.35
2022-10-09T09:40:08.180Z,70.65
2022-10-09T09:42:14.819Z,70.49
2022-10-09T09:44:46.470Z,70.69
2022-10-09T09:47:17.604Z,70.54
2022-10-09T09:50:01.137Z,70.36
2022-10-09T09:52:31.148Z,70.48
2022-10-09T09:54:58.598Z,70.42
2022-10-09T09:57:32.358Z,70.12
2022-10-09T10:00:18.012Z,70.40
2022-10-09T10:02:44.876Z,70.35
2022-10-09T10:05:29.430Z,70.42
2022-10-09T10:08:01.530Z,70.58
2022-10-09T10:10:29.135Z,70.59
2022-10-09T10:12:58.506Z,70.51
2022-10-09T10:16:01.597Z,70.64
2022-10-09T10:18:32.288Z,70.78
2022-10-09T10:21:11.648Z,70.48
2022-10-09T10:23:44.584Z,70.52
2022-10-09T10:26:22.216Z,70.39
2022-10-09T10:28:57.187Z,70.48
2022-10-09T10:31:38.931Z,70.81
2022-10-09T12:48:10.224Z,69.71
2022-10-09T12:50:37.544Z,69.82
2022-10-09T12:53:14.170Z,69.84
2022-10-09T12:55:43.889Z,69.74
2022-10-09T12:58:38.919Z,69.65
2022-10-09T13:01:07.530Z,69.73
2022-10-09T13:03:43.455Z,69.86
2022-10-09T13:06:17.106Z,69.80
2022-10-09T13:08:44.761Z,69.87
2022-10-09T13:11:16.703Z,69.89
2022-10-09T13:13:48.845Z,69.71
2022-10-09T13:16:16.011Z,69.78
2022-10-09T13:19:05.803Z,69.72
2022-10-09T13:22:07.472Z,69.83
2022-10-09T13:37:57.264Z,69.66
2022-10-09T13:40:24.098Z,69.69
2022-10-09T13:42:56.719Z,69.79
2022-10-09T13:45:23.680Z,69.78
2022-10-09T13:47:50.729Z,69.82
2022-10-09T13:50:18.115Z,69.72
2022-10-09T13:52:44.972Z,69.72
2022-10-09T13:55:12.072Z,69.63
2022-10-09T13:57:38.870Z,69.80
2022-10-09T14:00:07.072Z,69.68
2022-10-09T14:02:33.885Z,69.65
2022-10-09T14:05:00.630Z,69.71
2022-10-09T14:07:27.447Z,69.74
2022-10-09T14:09:57.427Z,69.67
2022-10-09T14:12:25.835Z,69.61
2022-10-09T14:14:53.701Z,69.89
2022-10-09T14:17:20.644Z,69.50
2022-10-09T14:19:47.929Z,69.66
2022-10-09T14:22:15.079Z,69.52
2022-10-09T14:24:42.684Z,69.64
2022-10-09T14:27:09.514Z,69.50
2022-10-09T14:29:38.075Z,69.59
2022-10-09T14:32:05.663Z,69.60
2022-10-09T14:34:32.466Z,69.67
2022-10-09T14:36:59.355Z,69.93
2022-10-09T14:39:26.183Z,69.88
2022-10-09T14:41:53.056Z,69.84
2022-10-09T14:44:20.131Z,69.84
2022-10-09T14:46:48.147Z,69.84
2022-10-09T14:49:15.195Z,69.83
2022-10-09T14:51:42.137Z,69.78
2022-10-09T14:54:10.883Z,69.90
2022-10-09T14:56:38.859Z,69.81
2022-10-09T14:59:13.797Z,69.98
2022-10-09T15:01:43.612Z,69.99
2022-10-09T15:04:17.943Z,69.79
2022-10-09T15:06:44.847Z,69.83
2022-10-09T15:09:11.671Z,70.28
2022-10-09T15:11:38.594Z,70.29
2022-10-09T15:14:05.428Z,70.27
2022-10-09T15:16:35.992Z,70.32
2022-10-09T15:19:04.612Z,70.24
2022-10-09T15:21:35.659Z,70.39
2022-10-09T15:24:03.799Z,70.29
2022-10-09T15:26:33.000Z,70.48
2022-10-09T15:29:02.618Z,70.54
2022-10-09T15:31:31.030Z,70.56
2022-10-09T15:33:58.690Z,70.75
2022-10-09T15:36:25.701Z,70.80
2022-10-09T15:38:52.652Z,70.67
2022-10-09T15:41:21.308Z,70.49
2022-10-09T15:43:48.817Z,70.84
2022-10-09T15:46:16.015Z,70.88
2022-10-09T15:48:45.573Z,71.00
2022-10-09T15:51:15.341Z,70.90
2022-10-09T15:53:43.961Z,71.01
2022-10-09T15:56:13.816Z,71.04
2022-10-09T15:58:40.907Z,70.98
2022-10-09T16:01:10.892Z,71.03
2022-10-09T16:03:37.727Z,71.06
2022-10-09T16:06:07.304Z,71.03
2022-10-09T16:08:34.433Z,71.10
2022-10-09T16:11:05.782Z,71.12
2022-10-09T16:13:37.827Z,71.25
2022-10-09T16:16:10.231Z,71.36
2022-10-09T16:18:37.490Z,71.30
2022-10-09T16:21:09.562Z,71.01
2022-10-09T16:23:36.708Z,71.38
2022-10-09T16:26:04.565Z,71.30
2022-10-09T16:28:32.129Z,71.40
2022-10-09T16:30:59.405Z,71.35
2022-10-09T16:33:26.419Z,71.58
2022-10-09T16:35:53.220Z,71.56
2022-10-09T16:38:20.461Z,71.58
2022-10-09T16:41:04.557Z,71.60
2022-10-09T16:43:35.107Z,71.68
2022-10-09T16:46:15.902Z,71.49
2022-10-09T16:48:42.755Z,71.54
2022-10-09T16:51:14.719Z,71.53
2022-10-09T16:53:42.124Z,71.46
2022-10-09T16:56:08.813Z,71.57
2022-10-09T16:58:35.639Z,71.75
2022-10-09T17:01:06.082Z,71.48
2022-10-09T17:03:36.600Z,71.76
2022-10-09T17:06:07.653Z,71.52
2022-10-09T17:08:34.535Z,71.52
2022-10-09T17:11:01.434Z,71.62
2022-10-09T17:13:28.318Z,71.63
2022-10-09T17:15:55.199Z,71.72
2022-10-09T17:18:22.081Z,71.93
2022-10-09T17:20:48.883Z,72.11
2022-10-09T17:23:15.721Z,72.16
2022-10-09T17:25:43.931Z,72.42
2022-10-09T17:28:10.822Z,72.50
2022-10-09T17:30:39.602Z,72.52
2022-10-09T17:33:07.169Z,72.50
2022-10-09T17:35:38.657Z,72.35
2022-10-09T17:38:05.435Z,72.48
2022-10-09T17:40:32.219Z,72.41
2022-10-09T17:42:58.961Z,72.64
2022-10-09T17:45:25.780Z,72.73
2022-10-09T17:47:52.576Z,72.75
2022-10-09T17:50:19.313Z,72.77
2022-10-09T17:52:46.105Z,72.96
2022-10-09T17:55:12.875Z,73.24
2022-10-09T17:57:39.605Z,72.91
2022-10-09T18:00:07.179Z,72.77
2022-10-09T18:02:33.915Z,72.72
2022-10-09T18:05:00.809Z,72.98
2022-10-09T18:07:27.535Z,73.03
2022-10-09T18:09:54.295Z,72.82
2022-10-09T18:12:21.129Z,72.75
2022-10-09T18:14:47.914Z,72.61
2022-10-09T18:17:14.666Z,72.20
2022-10-09T18:19:41.427Z,71.91
2022-10-09T18:22:08.170Z,71.78
2022-10-09T18:24:34.985Z,71.67
2022-10-09T18:27:01.714Z,71.96
2022-10-09T18:29:28.446Z,71.96
2022-10-09T18:31:55.759Z,72.01
2022-10-09T18:34:23.272Z,71.99
2022-10-09T18:36:51.802Z,72.36
2022-10-09T18:39:18.971Z,72.37
2022-10-09T18:41:45.739Z,72.41
2022-10-09T18:44:17.330Z,72.46
2022-10-09T18:46:48.303Z,72.33
2022-10-09T18:49:17.924Z,72.29
2022-10-09T18:51:45.099Z,72.49
2022-10-09T18:54:17.943Z,72.40
2022-10-09T18:56:45.682Z,72.63
2022-10-09T18:59:15.174Z,72.82
2022-10-09T19:01:41.897Z,72.52
2022-10-09T19:04:08.626Z,72.47
2022-10-09T19:06:35.771Z,72.64
2022-10-09T19:09:03.115Z,72.51
2022-10-09T19:11:32.128Z,72.75
2022-10-09T19:14:00.557Z,72.62
2022-10-09T19:16:32.754Z,72.67
2022-10-09T19:19:01.833Z,72.38
2022-10-09T19:21:31.870Z,72.54
2022-10-09T19:24:03.498Z,72.56
2022-10-09T19:26:31.688Z,72.68
2022-10-09T19:28:59.799Z,72.63
2022-10-09T19:31:26.948Z,72.49
2022-10-09T19:33:53.743Z,72.52
2022-10-09T19:36:20.492Z,72.47
2022-10-09T19:38:47.489Z,72.53
2022-10-09T19:41:15.288Z,72.55
2022-10-09T19:43:42.787Z,72.46
2022-10-09T19:46:17.068Z,72.30
2022-10-09T19:48:44.327Z,72.40
2022-10-09T19:51:13.614Z,72.38
2022-10-09T19:53:40.707Z,72.57
2022-10-09T19:56:11.875Z,72.57
2022-10-09T19:58:42.976Z,72.24
2022-10-09T20:01:11.421Z,72.51
2022-10-09T20:03:40.848Z,72.48
2022-10-09T20:06:08.942Z,72.28
2022-10-09T20:08:36.996Z,72.29
2022-10-09T20:11:04.755Z,72.21
2022-10-09T20:13:36.138Z,72.12
2022-10-09T20:16:05.125Z,72.21
2022-10-09T20:18:32.139Z,72.08
2022-10-09T20:20:59.170Z,71.88
2022-10-09T20:23:26.178Z,71.76
2022-10-09T20:26:03.829Z,71.96
2022-10-09T20:28:35.394Z,71.87
2022-10-09T20:31:07.834Z,71.88
2022-10-09T20:33:35.924Z,72.10
2022-10-09T20:36:05.944Z,72.12
2022-10-09T20:38:35.307Z,72.31
2022-10-09T20:41:10.735Z,72.22
2022-10-09T20:43:38.142Z,72.13
2022-10-09T20:46:07.235Z,72.33
2022-10-09T20:48:37.097Z,72.20
2022-10-09T20:51:09.889Z,72.17
2022-10-09T20:53:36.806Z,72.57
2022-10-09T20:56:06.150Z,72.50
2022-10-09T20:58:33.740Z,72.38
2022-10-09T21:01:03.373Z,72.53
2022-10-09T21:03:30.248Z,72.60
2022-10-09T21:05:58.465Z,72.46
2022-10-09T21:08:29.442Z,72.35
2022-10-09T21:10:58.261Z,72.46
2022-10-09T21:13:32.292Z,72.50
2022-10-09T21:15:59.148Z,72.30
2022-10-09T21:18:25.976Z,72.62
2022-10-09T21:20:52.821Z,72.32
2022-10-09T21:23:19.736Z,72.33
2022-10-09T21:25:51.841Z,72.35
2022-10-09T21:28:20.326Z,72.25
2022-10-09T21:30:47.436Z,72.32
2022-10-09T21:33:14.934Z,72.26
2022-10-09T21:35:47.927Z,72.10
2022-10-09T21:38:19.502Z,72.11
2022-10-09T21:40:47.034Z,71.95
2022-10-09T21:43:13.978Z,71.83
2022-10-09T21:45:44.146Z,71.68
2022-10-09T21:48:16.239Z,71.90
2022-10-09T21:50:43.487Z,71.79
2022-10-09T21:53:10.908Z,71.69
2022-10-09T21:55:55.036Z,71.78
2022-10-09T21:58:27.639Z,71.86
2022-10-09T22:01:02.458Z,71.82
2022-10-09T22:03:33.722Z,71.34
2022-10-09T22:06:07.171Z,71.68
2022-10-09T22:08:34.465Z,71.79
2022-10-09T22:11:04.784Z,71.69
2022-10-09T22:13:31.549Z,71.75
2022-10-09T22:15:58.269Z,71.79
2022-10-09T22:18:25.060Z,71.57
2022-10-09T22:20:51.940Z,71.52
2022-10-09T22:23:19.827Z,71.40
2022-10-09T22:25:57.558Z,71.38
2022-10-09T22:28:24.411Z,71.14
2022-10-09T22:31:04.691Z,71.12
2022-10-09T22:33:31.670Z,70.94
2022-10-09T22:36:03.681Z,70.67
2022-10-09T22:38:30.999Z,70.72
2022-10-09T22:41:16.000Z,70.48
2022-10-09T22:43:45.189Z,70.44
2022-10-09T22:46:14.740Z,70.47
2022-10-09T22:48:41.760Z,70.21
2022-10-09T22:51:10.515Z,70.23
2022-10-09T22:53:37.932Z,70.15
2022-10-09T22:56:06.171Z,70.21
2022-10-09T22:58:33.493Z,69.94
2022-10-09T23:01:10.120Z,70.11
2022-10-09T23:03:36.966Z,70.02
2022-10-09T23:06:30.069Z,70.00
2022-10-09T23:08:56.767Z,70.00
2022-10-09T23:11:24.366Z,69.86
2022-10-09T23:13:55.891Z,69.64
2022-10-09T23:16:23.238Z,69.73
2022-10-09T23:18:50.381Z,69.85
2022-10-09T23:21:19.589Z,69.77
2022-10-09T23:23:47.314Z,69.96
2022-10-09T23:26:28.522Z,69.91
2022-10-09T23:29:03.709Z,69.93
2022-10-09T23:31:30.522Z,69.73
2022-10-09T23:33:58.087Z,69.79
2022-10-09T23:36:27.154Z,69.64
2022-10-09T23:38:54.325Z,69.62
2022-10-09T23:41:23.349Z,69.64
2022-10-09T23:43:50.203Z,69.62
2022-10-09T23:46:24.216Z,69.22
2022-10-09T23:48:51.445Z,69.19
2022-10-09T23:51:19.297Z,69.22
2022-10-09T23:53:46.100Z,69.00
2022-10-09T23:56:22.127Z,69.18
2022-10-09T23:58:49.363Z,68.89
